الصفحة الرئيسية
METAR-TAF:

METAR-TAF

مطار :

أنقرة Esenboğa, تركيا

مطار إيسنبوغا الدولي

دائرة عرض: 40-07N, خط طول: 032-59E, ارتفاع: 953 متر

مراقبة الطقس الحالي

تاريخ ووقت الإصدار 23 دقيقة قبل الساعة 03:20UTC
ريح 5 عقدة من الغرب
درجة الحرارة 0°درجة مئوية
الرطوبة 64%
ضغط 1005 hPa
الرؤية 10 كم أو أكثر
غيوم متفرقة على ارتفاع 4000 قدم
غيوم مفككة على ارتفاع 10000 قدم

METAR: LTAC 190320Z 28005KT 9999 SCT040 BKN100 M00/M06 Q1005 NOSIG RMK RWY21L 28006KT 250V320 RWY03L VRB02KT RWY21R 30005KT 240V340

زمن: 06:43 (03:43 UTC)

توقعات

تاريخ ووقت الإصدار 5ساعات و 3 دقيقة قبل الساعة 22:40UTC
التوقعات صالحة من19 الساعة 00 UTC إلى 19 الساعة 24 UTC
ريح 12 عقدة من الغرب/الشمال الغربي
الرؤية 10 كم أو أكثر
غيوم متفرقة على ارتفاع 3500 قدم
غيوم مفككة على ارتفاع 9000 قدم
أصبح
من 19 الساعة 09 UTC إلى 19 الساعة 12 UTC
ريح 2 عقدةمن اتجاهات متغيرة

TAF: LTAC 182240Z 1900/1924 30012KT 9999 SCT035 BKN090 BECMG 1909/1912 VRB02KT

أرصاد الطقس والتوقعات من أكثر من 4000 مطار (تقارير الطقس للمطار METAR والتنبؤ بالطقس بالمطارTAF).

المحطات المتاحة هي النقط الصفراء والحمراء على الخريطة.

حرك المؤشر فوق النقطة لمعرفة اسم المحطة.

ثم انقر لمعرفة أرصاد وتوقعات الطقس.

لتغيير الخارطة: اضغط على الأزرار الخضراء مع رمز الصليب الأسود للتكبير. على الزر الأخضر مع شرطة للتصغير، أو على الأسهم الخضراء للخرائط المجاورة.


METAR-TAF: